Time;durP1;ratioP1;P1;durP2;ratioP2;P2;SDS_P1;SDS_P2;PMS_P1;PMS_P2;Temp;Humidity;BMP_temperature;BMP_pressure;BME280_temperature;BME280_humidity;BME280_pressure;Samples;Min_cycle;Max_cycle;Signal;HPM_P1;HPM_P2
2022/04/26 03:36:08;;;;;;;7.05;4.10;;;;;;;7.11;71.68;101455.69;5032475;28;20130;-67
2022/04/26 03:38:35;;;;;;;7.50;4.78;;;;;;;7.03;72.17;101458.34;5032367;28;20492;-68
2022/04/26 03:41:03;;;;;;;10.43;4.93;;;;;;;6.96;72.72;101456.66;5032648;28;20503;-68
2022/04/26 03:43:30;;;;;;;9.70;4.78;;;;;;;6.97;73.01;101463.63;5032419;28;20042;-67
2022/04/26 03:45:58;;;;;;;8.50;4.65;;;;;;;6.95;73.21;101457.53;5032535;28;20042;-68
2022/04/26 03:48:25;;;;;;;8.63;4.55;;;;;;;6.94;73.58;101463.66;5032231;28;20100;-68
2022/04/26 03:50:55;;;;;;;7.68;4.60;;;;;;;6.94;73.90;101464.50;5032470;28;20581;-68
2022/04/26 03:53:23;;;;;;;8.30;5.05;;;;;;;6.95;74.20;101470.66;5032679;28;20073;-68
2022/04/26 03:55:50;;;;;;;9.85;4.82;;;;;;;6.96;74.32;101456.66;5032232;28;20137;-69
2022/04/26 03:58:17;;;;;;;9.02;4.88;;;;;;;6.98;74.68;101458.38;5032523;28;20042;-70
2022/04/26 04:00:44;;;;;;;8.85;5.30;;;;;;;6.98;75.14;101465.38;5031752;28;20128;-67
2022/04/26 04:03:11;;;;;;;8.48;5.10;;;;;;;6.99;75.27;101464.47;5032520;28;20499;-68
2022/04/26 04:05:41;;;;;;;8.25;5.22;;;;;;;7.02;75.41;101463.63;5032964;28;20452;-68
2022/04/26 04:08:08;;;;;;;10.15;5.63;;;;;;;7.05;75.64;101464.47;5033074;28;20731;-68
2022/04/26 04:10:35;;;;;;;11.48;5.55;;;;;;;7.07;75.88;101465.31;5032662;28;20108;-68
2022/04/26 04:13:02;;;;;;;11.00;5.50;;;;;;;7.06;75.92;101468.84;5032779;28;20034;-68
2022/04/26 04:15:30;;;;;;;14.10;5.60;;;;;;;7.06;76.23;101476.69;5032961;28;20482;-68
2022/04/26 04:17:57;;;;;;;9.73;5.47;;;;;;;7.06;76.50;101474.09;5032825;28;20483;-68
2022/04/26 04:20:23;;;;;;;6.63;4.90;;;;;;;7.07;76.70;101482.81;5032754;28;20096;-67
2022/04/26 04:22:53;;;;;;;8.88;5.78;;;;;;;7.09;76.76;101484.53;5034898;28;20054;-67
2022/04/26 04:25:21;;;;;;;11.93;5.00;;;;;;;7.12;77.01;101487.16;5035848;28;20427;-67
2022/04/26 04:27:48;;;;;;;10.45;5.88;;;;;;;7.12;77.05;101475.81;5035368;28;20042;-67
2022/04/26 04:30:15;;;;;;;10.90;5.35;;;;;;;7.14;77.24;101477.53;5034882;28;20069;-67
2022/04/26 04:32:44;;;;;;;8.68;5.28;;;;;;;7.16;77.45;101482.75;5035708;28;20123;-68
2022/04/26 04:35:11;;;;;;;8.77;5.38;;;;;;;7.19;77.34;101489.72;5035206;28;20060;-68
2022/04/26 04:37:38;;;;;;;7.80;5.43;;;;;;;7.20;77.65;101481.88;5035731;28;20046;-68
2022/04/26 04:40:06;;;;;;;10.25;5.80;;;;;;;7.20;77.62;101479.25;5034899;28;20120;-68
2022/04/26 04:42:33;;;;;;;10.00;6.00;;;;;;;7.21;77.77;101490.59;5035252;28;20042;-68
2022/04/26 04:45:02;;;;;;;11.63;5.80;;;;;;;7.22;77.78;101490.59;5035011;28;20500;-67
2022/04/26 04:47:29;;;;;;;12.43;5.95;;;;;;;7.25;77.94;101487.94;5035191;28;20050;-68
2022/04/26 04:49:56;;;;;;;9.20;5.97;;;;;;;7.28;77.96;101501.03;5035353;28;20045;-68
2022/04/26 04:52:23;;;;;;;10.82;5.88;;;;;;;7.31;77.85;101500.16;5035469;28;20042;-67
2022/04/26 04:54:57;;;;;;;11.10;6.30;;;;;;;7.44;77.83;101499.19;5035293;28;20038;-67
2022/04/26 04:57:25;;;;;;;15.10;6.30;;;;;;;7.63;77.37;101501.69;5034659;28;20049;-68
2022/04/26 04:59:52;;;;;;;10.82;6.47;;;;;;;7.76;76.73;101507.69;5035265;28;20038;-68
2022/04/26 05:02:19;;;;;;;9.25;5.85;;;;;;;7.75;76.57;101509.47;5035538;28;20038;-67
2022/04/26 05:04:47;;;;;;;12.55;6.13;;;;;;;7.75;76.67;101505.19;5034878;28;20046;-67
2022/04/26 05:07:14;;;;;;;10.85;5.90;;;;;;;7.65;77.39;101512.16;5034958;28;20042;-69
2022/04/26 05:09:42;;;;;;;9.23;5.10;;;;;;;7.62;77.57;101518.31;5034861;28;20052;-67
2022/04/26 05:12:10;;;;;;;13.73;6.40;;;;;;;7.59;77.47;101524.47;5034740;28;20042;-68
2022/04/26 05:14:37;;;;;;;13.90;6.45;;;;;;;7.65;77.55;101523.53;5035086;28;20061;-67
2022/04/26 05:17:04;;;;;;;16.48;6.53;;;;;;;7.69;77.57;101527.00;5034411;28;20041;-68
2022/04/26 05:19:31;;;;;;;12.15;6.32;;;;;;;7.73;77.45;101529.59;5034949;28;20468;-67
2022/04/26 05:21:59;;;;;;;13.45;6.65;;;;;;;7.70;77.39;101537.50;5035158;28;20108;-68
2022/04/26 05:27:12;;;;;;;11.10;6.47;;;;;;;7.71;77.39;101536.59;5034729;28;20049;-68
2022/04/26 05:29:41;;;;;;;12.10;6.57;;;;;;;7.72;77.20;101540.13;5034408;28;20046;-67
2022/04/26 05:32:08;;;;;;;12.25;6.75;;;;;;;7.73;77.18;101545.34;5034245;28;20523;-68
2022/04/26 05:34:36;;;;;;;10.40;6.65;;;;;;;7.74;77.23;101539.22;5049435;28;20089;-67
2022/04/26 05:37:04;;;;;;;13.60;6.97;;;;;;;7.77;77.70;101554.97;5034626;28;20492;-67
2022/04/26 05:39:37;;;;;;;11.63;6.68;;;;;;;7.89;77.39;101553.09;5034044;28;20053;-68
2022/04/26 05:42:05;;;;;;;11.20;6.65;;;;;;;7.99;76.98;101560.00;5035052;28;20077;-67
2022/04/26 05:44:34;;;;;;;14.05;7.30;;;;;;;8.06;76.74;101564.34;5034310;28;20522;-67
2022/04/26 05:47:03;;;;;;;15.55;6.90;;;;;;;8.14;76.40;101563.41;5034425;28;20054;-67
2022/04/26 05:49:31;;;;;;;12.80;7.10;;;;;;;8.18;76.11;101563.38;5033798;28;20045;-69
2022/04/26 05:51:58;;;;;;;12.65;7.35;;;;;;;8.25;75.66;101569.44;5034503;28;20575;-68
2022/04/26 05:54:25;;;;;;;11.65;6.85;;;;;;;8.28;75.24;101560.66;5034399;28;20050;-67
2022/04/26 05:56:53;;;;;;;27.20;8.40;;;;;;;8.34;75.07;101568.50;5034114;28;20050;-69
2022/04/26 05:59:22;;;;;;;17.90;7.60;;;;;;;8.43;75.20;101571.03;5033868;28;20515;-68
2022/04/26 06:01:51;;;;;;;13.50;7.53;;;;;;;8.53;74.65;101564.84;5032712;28;20041;-67
2022/04/26 06:04:19;;;;;;;11.30;7.68;;;;;;;8.64;74.61;101579.63;5034268;28;20101;-68
2022/04/26 06:06:46;;;;;;;11.77;7.40;;;;;;;8.66;74.15;101570.84;5034233;28;20096;-68
2022/04/26 06:09:13;;;;;;;15.40;7.35;;;;;;;8.64;73.87;101580.50;5034152;28;20038;-68
2022/04/26 06:11:40;;;;;;;18.63;7.93;;;;;;;8.59;73.74;101584.94;5034211;28;20038;-69
2022/04/26 06:14:09;;;;;;;13.98;7.78;;;;;;;8.49;74.21;101580.66;5033378;28;20127;-67
2022/04/26 06:16:36;;;;;;;11.35;7.22;;;;;;;8.51;73.90;101581.50;5033815;28;20050;-68
2022/04/26 06:19:03;;;;;;;14.93;7.72;;;;;;;8.47;74.01;101585.91;5033865;28;20487;-67
2022/04/26 06:21:31;;;;;;;12.75;7.70;;;;;;;8.45;74.17;101582.38;5033910;28;20498;-67
2022/04/26 06:23:58;;;;;;;13.80;7.95;;;;;;;8.46;74.28;101596.41;5036296;28;20741;-68
2022/04/26 06:26:25;;;;;;;11.50;7.25;;;;;;;8.51;74.15;101597.25;5037726;28;20038;-68
2022/04/26 06:28:52;;;;;;;13.35;7.80;;;;;;;8.57;73.79;101597.22;5038085;28;20086;-67
2022/04/26 06:31:20;;;;;;;15.85;8.65;;;;;;;8.62;73.70;101594.53;5037464;28;20042;-68
2022/04/26 06:33:47;;;;;;;10.50;7.88;;;;;;;8.67;73.77;101588.34;5036517;28;20312;-67
2022/04/26 06:36:14;;;;;;;13.70;8.40;;;;;;;8.70;73.32;101593.56;5035430;28;20042;-68
2022/04/26 06:38:41;;;;;;;11.68;7.65;;;;;;;8.75;72.73;101596.13;5033465;28;20483;-67
2022/04/26 06:41:08;;;;;;;13.45;8.68;;;;;;;8.72;72.71;101587.41;5033860;28;20034;-67
2022/04/26 06:43:36;;;;;;;15.60;8.27;;;;;;;8.75;72.64;101600.53;5033210;28;20046;-68
2022/04/26 06:46:03;;;;;;;15.88;8.90;;;;;;;8.80;72.38;101589.09;5033358;28;20034;-67
2022/04/26 06:48:31;;;;;;;16.13;9.27;;;;;;;8.89;72.27;101593.38;5033780;28;20197;-67
2022/04/26 06:50:58;;;;;;;15.57;9.27;;;;;;;8.98;72.18;101592.38;5033380;28;20054;-68
2022/04/26 06:53:25;;;;;;;17.10;9.10;;;;;;;9.06;71.85;101594.94;5033001;28;20049;-69
2022/04/26 06:55:52;;;;;;;12.63;8.77;;;;;;;9.13;71.42;101597.47;5033296;28;20038;-68
2022/04/26 06:58:20;;;;;;;16.42;8.45;;;;;;;9.20;70.68;101594.75;5033264;28;20042;-67
2022/04/26 07:00:48;;;;;;;12.10;8.27;;;;;;;9.25;70.60;101598.22;5032667;28;20499;-67
2022/04/26 07:03:16;;;;;;;17.80;7.97;;;;;;;9.28;69.91;101601.69;5033186;28;20503;-67
2022/04/26 07:05:44;;;;;;;17.08;9.30;;;;;;;9.29;70.41;101605.16;5033297;28;20080;-68
2022/04/26 07:08:11;;;;;;;17.23;9.30;;;;;;;9.37;69.87;101607.72;5033129;28;20052;-68
2022/04/26 07:10:44;;;;;;;14.60;9.23;;;;;;;9.46;69.91;101607.59;5033232;28;20540;-67
2022/04/26 07:13:15;;;;;;;21.50;9.55;;;;;;;9.67;69.70;101603.78;5032893;28;20042;-68
2022/04/26 07:15:42;;;;;;;12.43;9.05;;;;;;;9.82;68.89;101604.44;5032549;28;20080;-68
2022/04/26 07:18:09;;;;;;;17.17;8.85;;;;;;;9.90;68.61;101613.09;5033316;28;20128;-67
2022/04/26 07:20:36;;;;;;;16.02;9.07;;;;;;;10.01;68.18;101605.06;5033145;28;20555;-68
2022/04/26 07:23:03;;;;;;;20.23;9.93;;;;;;;10.13;68.45;101610.09;5032969;28;20054;-68
2022/04/26 07:25:30;;;;;;;16.73;9.32;;;;;;;10.30;67.70;101617.72;5032483;28;20605;-68
2022/04/26 07:27:57;;;;;;;14.15;8.35;;;;;;;10.43;67.00;101621.06;5032860;28;20555;-68
2022/04/26 07:30:34;;;;;;;11.52;8.68;;;;;;;10.59;66.93;101623.44;5032923;28;20104;-70
2022/04/26 07:35:55;;;;;;;14.88;8.77;;;;;;;10.96;65.51;101626.28;5032678;28;20045;-68
2022/04/26 07:38:22;;;;;;;13.35;8.18;;;;;;;11.05;65.06;101629.63;5032038;28;20124;-68
2022/04/26 07:40:50;;;;;;;13.98;9.43;;;;;;;11.14;64.69;101635.56;5031308;28;20042;-68
2022/04/26 07:43:17;;;;;;;16.50;9.35;;;;;;;11.38;63.57;101621.91;5032803;28;20045;-68
2022/04/26 07:45:45;;;;;;;13.13;8.20;;;;;;;11.56;63.22;101623.28;5032776;28;20045;-68
2022/04/26 07:48:16;;;;;;;11.75;8.00;;;;;;;11.76;62.45;101628.13;5032595;28;20041;-68
2022/04/26 07:50:47;;;;;;;17.73;8.27;;;;;;;12.22;61.67;101632.34;5032229;28;20044;-68
2022/04/26 07:53:14;;;;;;;16.25;7.80;;;;;;;12.47;60.24;101630.84;5032822;28;20052;-68
2022/04/26 07:55:42;;;;;;;10.23;7.53;;;;;;;12.38;59.69;101640.75;5031172;28;20531;-68
2022/04/26 07:58:10;;;;;;;22.92;9.00;;;;;;;12.21;60.26;101635.88;5032499;28;20042;-68
2022/04/26 08:00:37;;;;;;;15.00;8.43;;;;;;;12.00;60.60;101645.22;5032298;28;20049;-68
2022/04/26 08:03:05;;;;;;;13.95;7.80;;;;;;;11.97;61.18;101650.53;5031600;28;20045;-68
2022/04/26 08:05:33;;;;;;;16.40;8.23;;;;;;;11.99;61.11;101651.41;5032216;28;20045;-69
2022/04/26 08:08:00;;;;;;;10.98;7.60;;;;;;;12.00;61.25;101645.22;5032084;28;20486;-68
2022/04/26 08:10:27;;;;;;;14.45;8.07;;;;;;;12.03;61.27;101655.72;5032656;28;20539;-68
2022/04/26 08:12:54;;;;;;;16.17;7.88;;;;;;;12.06;62.12;101654.78;5031850;28;20048;-67
2022/04/26 08:15:21;;;;;;;14.38;8.15;;;;;;;12.13;60.90;101658.16;5032593;28;20038;-68
2022/04/26 08:17:50;;;;;;;23.63;8.43;;;;;;;12.21;60.28;101657.03;5031909;28;20906;-68
2022/04/26 08:20:24;;;;;;;18.73;7.80;;;;;;;12.40;60.00;101657.47;5032017;28;20042;-68
2022/04/26 08:22:52;;;;;;;12.23;6.80;;;;;;;12.64;58.59;101667.44;5032335;28;20054;-68
2022/04/26 08:28:05;;;;;;;16.13;7.80;;;;;;;13.08;58.00;101667.16;5032599;28;20052;-68
2022/04/26 08:30:34;;;;;;;12.18;6.95;;;;;;;13.18;57.26;101677.47;5032739;28;20054;-68
2022/04/26 08:33:01;;;;;;;10.18;6.63;;;;;;;13.11;56.62;101667.09;5031887;28;20038;-67
2022/04/26 08:35:28;;;;;;;16.25;7.93;;;;;;;13.06;57.82;101664.56;5032748;28;20042;-68
2022/04/26 08:38:15;;;;;;;20.55;7.10;;;;;;;13.07;57.66;101673.41;5032546;28;20133;-69
2022/04/26 08:40:43;;;;;;;16.65;7.63;;;;;;;13.14;56.65;101667.88;5032622;28;20074;-68
2022/04/26 08:43:12;;;;;;;13.82;6.95;;;;;;;13.27;56.37;101664.88;5032126;28;20048;-68
2022/04/26 08:45:46;;;;;;;13.13;7.80;;;;;;;13.30;56.06;101672.75;5032586;28;20052;-68
2022/04/26 08:51:05;;;;;;;14.02;7.15;;;;;;;13.35;56.64;101671.72;5032562;28;20556;-69
2022/04/26 08:53:35;;;;;;;20.98;7.05;;;;;;;13.78;55.78;101674.03;5031836;28;20046;-69
2022/04/26 08:56:06;;;;;;;12.68;6.57;;;;;;;14.05;54.39;101669.63;5032443;28;20157;-68
2022/04/26 08:58:35;;;;;;;15.25;6.95;;;;;;;14.25;53.19;101682.28;5032461;28;20116;-68
2022/04/26 09:01:18;;;;;;;11.70;6.97;;;;;;;14.19;53.83;101684.25;5032610;28;20049;-69
2022/04/26 09:03:54;;;;;;;9.40;6.45;;;;;;;14.19;52.88;101677.19;5031605;28;20049;-68
2022/04/26 09:06:39;;;;;;;16.52;6.93;;;;;;;14.37;52.54;101680.13;5031628;28;20530;-68
2022/04/26 09:09:18;;;;;;;8.77;5.88;;;;;;;14.55;51.74;101681.31;5034551;28;20038;-67
2022/04/26 09:11:46;;;;;;;10.60;6.30;;;;;;;14.73;51.82;101694.00;5035220;28;20046;-68
2022/04/26 09:14:35;;;;;;;12.55;6.40;;;;;;;14.82;51.25;101690.13;5034553;28;20049;-68
2022/04/26 09:17:09;;;;;;;12.93;6.32;;;;;;;14.60;51.91;101687.31;5034782;28;20173;-68
2022/04/26 09:19:54;;;;;;;10.63;6.28;;;;;;;14.70;51.98;101687.94;5035024;28;20096;-69
2022/04/26 09:22:26;;;;;;;10.32;5.82;;;;;;;14.81;50.82;101683.09;5034263;28;20516;-68
2022/04/26 09:25:03;;;;;;;14.73;6.72;;;;;;;14.80;51.91;101688.47;5035142;28;20120;-67
2022/04/26 09:27:37;;;;;;;13.10;6.40;;;;;;;14.49;51.68;101692.13;5034791;28;20076;-69
2022/04/26 09:30:13;;;;;;;13.90;6.38;;;;;;;14.62;52.21;101693.44;5034931;28;20089;-68
2022/04/26 09:32:49;;;;;;;10.32;6.13;;;;;;;14.72;51.03;101696.69;5034696;28;20045;-67
2022/04/26 09:35:29;;;;;;;11.55;6.32;;;;;;;14.73;50.99;101701.06;5034161;28;20576;-68
2022/04/26 09:37:57;;;;;;;11.00;6.00;;;;;;;14.64;51.43;101706.66;5034302;28;20073;-68
2022/04/26 09:40:35;;;;;;;10.15;6.57;;;;;;;14.65;50.54;101705.75;5034871;28;20209;-67
2022/04/26 09:43:02;;;;;;;10.77;6.20;;;;;;;14.55;50.68;101708.72;5034382;28;20730;-68
2022/04/26 09:45:29;;;;;;;13.02;5.95;;;;;;;14.36;51.26;101718.19;5034712;28;20493;-68
2022/04/26 09:47:58;;;;;;;10.68;5.72;;;;;;;14.22;51.38;101718.63;5034561;28;20049;-68
2022/04/26 09:50:29;;;;;;;13.45;6.20;;;;;;;14.41;51.68;101719.78;5034295;28;20140;-68
2022/04/26 09:52:57;;;;;;;11.85;5.80;;;;;;;14.64;50.55;101717.28;5034661;28;20528;-67
2022/04/26 09:55:25;;;;;;;11.98;5.85;;;;;;;14.80;50.89;101717.66;5034021;28;20038;-67
2022/04/26 09:57:52;;;;;;;10.40;6.40;;;;;;;14.89;50.60;101722.66;5034221;28;20048;-69
2022/04/26 10:00:21;;;;;;;14.68;6.45;;;;;;;15.17;50.18;101721.69;5034181;28;20093;-68
2022/04/26 10:03:01;;;;;;;9.13;5.30;;;;;;;15.30;48.66;101730.09;5034201;28;20077;-68
2022/04/26 10:05:37;;;;;;;8.00;5.05;;;;;;;15.15;47.00;101728.84;5034124;28;20066;-68
2022/04/26 10:08:07;;;;;;;9.38;5.13;;;;;;;15.24;46.67;101733.84;5034087;28;20040;-67
2022/04/26 10:10:34;;;;;;;8.70;5.68;;;;;;;15.38;47.98;101733.34;5033873;28;20048;-68
2022/04/26 10:15:48;;;;;;;10.13;5.30;;;;;;;15.04;47.36;101740.72;5033954;28;20038;-68
2022/04/26 10:18:44;;;;;;;9.73;5.40;;;;;;;15.29;47.69;101731.00;5033127;28;20038;-69
2022/04/26 10:21:41;;;;;;;11.48;5.53;;;;;;;15.48;47.16;101739.16;5033549;28;20534;-68
2022/04/26 10:24:18;;;;;;;8.65;5.72;;;;;;;15.27;47.54;101756.75;5033847;28;20118;-68
2022/04/26 10:26:48;;;;;;;11.38;5.45;;;;;;;15.01;47.66;101746.13;5033854;28;20153;-67
2022/04/26 10:29:24;;;;;;;12.02;5.15;;;;;;;15.53;46.41;101750.50;5033573;28;20030;-68
2022/04/26 10:32:01;;;;;;;7.72;4.25;;;;;;;15.48;44.75;101756.00;5033904;28;20037;-67
2022/04/26 10:34:31;;;;;;;8.13;4.45;;;;;;;15.73;45.13;101743.56;5033094;28;20490;-68
2022/04/26 10:37:08;;;;;;;11.20;5.05;;;;;;;15.84;44.76;101741.41;5033485;28;20077;-68
2022/04/26 10:39:50;;;;;;;9.38;4.50;;;;;;;16.23;43.89;101747.88;5033118;28;20042;-68
2022/04/26 10:42:19;;;;;;;7.07;4.35;;;;;;;16.31;44.81;101751.13;5033815;28;20038;-68
2022/04/26 10:44:48;;;;;;;9.77;4.18;;;;;;;15.86;44.73;101751.97;5033576;28;20046;-69
2022/04/26 10:47:18;;;;;;;8.35;4.13;;;;;;;15.95;44.64;101746.31;5033499;28;20049;-68
2022/04/26 10:49:47;;;;;;;20.33;5.75;;;;;;;16.25;44.49;101757.56;5048453;28;20054;-68
2022/04/26 10:52:14;;;;;;;7.32;4.47;;;;;;;16.49;43.98;101765.47;5033288;28;20042;-67
2022/04/26 10:54:58;;;;;;;7.28;4.20;;;;;;;16.85;41.78;101762.22;5033498;28;20081;-68
2022/04/26 10:57:39;;;;;;;6.93;3.92;;;;;;;16.92;40.92;101760.16;5033434;28;20042;-67
2022/04/26 11:00:18;;;;;;;6.72;4.63;;;;;;;16.64;41.48;101755.97;5033180;28;20057;-68
2022/04/26 11:02:50;;;;;;;13.27;5.00;;;;;;;16.42;42.63;101756.88;5032736;28;20038;-68
2022/04/26 11:05:26;;;;;;;11.88;3.80;;;;;;;16.34;41.70;101755.44;5033266;28;20768;-68
2022/04/26 11:07:55;;;;;;;8.82;3.65;;;;;;;16.24;42.26;101769.13;5033292;28;20046;-68
2022/04/26 11:10:25;;;;;;;6.50;3.80;;;;;;;16.29;42.33;101769.78;5033363;28;20049;-68
2022/04/26 11:12:56;;;;;;;12.40;3.80;;;;;;;16.23;42.87;101767.38;5033269;28;20053;-68
2022/04/26 11:15:25;;;;;;;5.13;3.47;;;;;;;16.39;42.78;101761.44;5033014;28;20041;-68
2022/04/26 11:17:54;;;;;;;6.35;3.50;;;;;;;16.53;42.30;101768.88;5032563;28;20097;-68
2022/04/26 11:20:25;;;;;;;5.50;3.10;;;;;;;16.46;42.22;101769.13;5032951;28;20053;-68
2022/04/26 11:27:59;;;;;;;5.53;3.70;;;;;;;16.55;41.75;101770.56;5033035;28;20073;-68
2022/04/26 11:28:32;;;;;;;10.80;3.45;;;;;;;15.97;42.20;101774.56;5048097;28;20129;-69
2022/04/26 11:31:00;;;;;;;11.82;4.30;;;;;;;16.02;42.13;101774.41;5032239;28;20740;-68
2022/04/26 11:33:28;;;;;;;6.18;3.80;;;;;;;16.47;41.58;101767.34;5032500;28;20050;-69
2022/04/26 11:36:08;;;;;;;6.80;3.17;;;;;;;16.48;42.04;101774.41;5032776;28;20143;-69
2022/04/26 11:38:34;;;;;;;16.20;4.32;;;;;;;16.66;41.93;101772.75;5032829;28;20556;-68
2022/04/26 11:41:05;;;;;;;11.73;3.75;;;;;;;16.96;40.81;101764.44;5032635;28;20042;-68
2022/04/26 11:43:35;;;;;;;6.30;3.80;;;;;;;17.07;40.93;101769.34;5032568;28;20042;-68
2022/04/26 11:46:03;;;;;;;7.93;3.38;;;;;;;16.82;40.39;101770.34;5032307;28;20078;-67
2022/04/26 11:48:34;;;;;;;5.45;3.45;;;;;;;16.84;40.23;101773.81;5032600;28;20569;-68
2022/04/26 11:51:02;;;;;;;7.10;3.58;;;;;;;16.92;40.39;101774.34;5032204;28;20116;-68
2022/04/26 11:53:32;;;;;;;13.30;4.13;;;;;;;17.03;40.72;101773.94;5032411;28;20136;-68
2022/04/26 11:56:02;;;;;;;8.63;4.10;;;;;;;17.19;39.80;101774.16;5032084;28;20056;-68
2022/04/26 11:58:43;;;;;;;6.70;3.80;;;;;;;17.37;39.77;101772.44;5032513;28;20054;-68
2022/04/26 12:01:15;;;;;;;9.82;3.97;;;;;;;17.61;40.67;101761.63;5033080;28;20467;-68
2022/04/26 12:03:51;;;;;;;10.20;4.53;;;;;;;17.91;38.30;101768.28;5031061;28;20077;-69
2022/04/26 12:06:28;;;;;;;7.50;3.80;;;;;;;17.97;38.63;101768.88;5032535;28;20073;-69
2022/04/26 12:08:59;;;;;;;7.43;3.70;;;;;;;17.95;38.52;101768.09;5032139;28;20124;-68
2022/04/26 12:11:30;;;;;;;4.95;3.30;;;;;;;17.87;38.61;101777.38;5032794;28;20499;-68
2022/04/26 12:14:16;;;;;;;28.25;4.95;;;;;;;17.78;38.89;101775.97;5031412;28;20408;-68
2022/04/26 12:16:44;;;;;;;6.95;3.45;;;;;;;17.96;37.48;101767.16;5032010;28;20045;-68
2022/04/26 12:19:12;;;;;;;6.15;3.50;;;;;;;17.92;36.98;101764.66;5032347;28;20061;-68
2022/04/26 12:21:58;;;;;;;9.15;3.38;;;;;;;17.69;37.67;101778.13;5032216;28;20093;-68
2022/04/26 12:24:29;;;;;;;8.50;3.70;;;;;;;17.67;38.17;101784.47;5032394;28;20046;-68
2022/04/26 12:27:13;;;;;;;5.03;3.45;;;;;;;17.87;37.40;101780.88;5032037;28;20535;-70
2022/04/26 12:29:48;;;;;;;7.30;3.80;;;;;;;17.60;37.90;101780.38;5031759;28;20050;-69
2022/04/26 12:32:20;;;;;;;6.65;3.50;;;;;;;17.21;38.54;101792.72;5031880;28;20512;-68
2022/04/26 12:34:54;;;;;;;22.55;4.43;;;;;;;17.24;39.34;101787.25;5031232;28;20069;-68
2022/04/26 12:37:27;;;;;;;8.53;3.87;;;;;;;17.35;38.57;101776.97;5031840;28;20064;-69
2022/04/26 12:40:10;;;;;;;14.40;3.80;;;;;;;17.52;38.58;101794.03;5031858;28;20046;-68
2022/04/26 12:42:39;;;;;;;14.00;3.45;;;;;;;17.32;38.84;101786.91;5032992;28;20042;-68
2022/04/26 12:45:23;;;;;;;6.93;3.42;;;;;;;17.56;38.56;101789.44;5035079;28;20090;-68
2022/04/26 12:51:21;;;;;;;5.57;3.45;;;;;;;17.76;36.98;101775.19;5035061;28;20054;-68
2022/04/26 12:54:15;;;;;;;11.18;3.80;;;;;;;17.77;37.39;101776.91;5035120;28;20420;-69
2022/04/26 12:57:12;;;;;;;18.48;3.88;;;;;;;17.68;38.08;101775.56;5035032;28;20061;-69
2022/04/26 12:59:41;;;;;;;4.60;3.22;;;;;;;17.83;37.61;101773.97;5035008;28;20133;-68
2022/04/26 13:02:09;;;;;;;6.75;3.78;;;;;;;17.96;37.08;101771.59;5035155;28;20049;-68
2022/04/26 13:04:36;;;;;;;4.45;3.35;;;;;;;17.95;37.11;101788.53;5034434;28;20046;-68
2022/04/26 13:07:05;;;;;;;16.55;4.60;;;;;;;17.41;38.34;101791.81;5034899;28;20046;-68
2022/04/26 13:09:34;;;;;;;7.10;3.38;;;;;;;17.43;38.68;101778.44;5035006;28;20052;-69
2022/04/26 13:12:03;;;;;;;10.23;4.22;;;;;;;17.45;39.01;101776.59;5035151;28;20076;-69
2022/04/26 13:14:31;;;;;;;7.55;3.88;;;;;;;17.77;37.48;101776.91;5034428;28;20104;-70
2022/04/26 13:17:10;;;;;;;6.28;3.60;;;;;;;17.91;36.59;101777.16;5034919;28;20045;-68
2022/04/26 13:19:37;;;;;;;6.80;3.15;;;;;;;17.67;36.46;101777.34;5034738;28;20042;-68
2022/04/26 13:22:04;;;;;;;5.68;3.20;;;;;;;17.94;36.37;101776.13;5034797;28;20038;-68
2022/04/26 13:24:31;;;;;;;6.28;3.38;;;;;;;18.23;36.99;101782.81;5034314;28;20046;-68
2022/04/26 13:26:58;;;;;;;6.35;3.63;;;;;;;18.41;35.07;101769.50;5034530;28;20054;-68
2022/04/26 13:29:25;;;;;;;5.50;3.60;;;;;;;18.32;35.61;101768.13;5034662;28;20042;-69
2022/04/26 13:31:53;;;;;;;8.90;4.13;;;;;;;18.54;36.24;101770.66;5034344;28;20042;-69
2022/04/26 13:34:22;;;;;;;10.30;4.00;;;;;;;18.63;37.02;101763.97;5033870;28;20226;-68
2022/04/26 13:37:07;;;;;;;14.15;4.38;;;;;;;18.60;36.36;101769.47;5034724;28;20096;-69
2022/04/26 13:39:36;;;;;;;6.75;3.63;;;;;;;18.61;35.58;101773.88;5034678;28;20492;-68
2022/04/26 13:42:05;;;;;;;8.05;3.70;;;;;;;18.31;35.57;101774.44;5034109;28;20046;-68
2022/04/26 13:44:33;;;;;;;6.97;3.60;;;;;;;17.90;35.80;101777.25;5034744;28;20042;-69
2022/04/26 13:47:06;;;;;;;7.47;3.70;;;;;;;17.77;37.40;101763.56;5034162;28;20038;-68
2022/04/26 13:49:35;;;;;;;9.07;3.70;;;;;;;17.86;36.69;101776.50;5034148;28;20037;-69
2022/04/26 13:52:04;;;;;;;13.65;4.20;;;;;;;17.76;37.19;101778.72;5034301;28;20069;-68
2022/04/26 13:54:32;;;;;;;18.40;4.38;;;;;;;17.47;37.12;101775.59;5033859;28;20049;-68
2022/04/26 13:56:59;;;;;;;14.55;4.50;;;;;;;17.43;37.45;101776.63;5034501;28;20050;-69
2022/04/26 13:59:27;;;;;;;17.88;4.60;;;;;;;17.78;38.13;101774.19;5034344;28;20129;-69
2022/04/26 14:01:57;;;;;;;5.93;3.55;;;;;;;18.16;36.98;101771.56;5034134;28;20045;-68
2022/04/26 14:04:24;;;;;;;5.85;3.47;;;;;;;18.46;35.27;101767.50;5033896;28;20109;-68
2022/04/26 14:06:53;;;;;;;6.20;3.40;;;;;;;18.45;35.88;101773.78;5034116;28;20141;-68
2022/04/26 14:09:22;;;;;;;5.72;3.80;;;;;;;18.33;35.58;101771.69;5033872;28;20045;-69
2022/04/26 14:11:51;;;;;;;5.90;3.50;;;;;;;18.15;35.78;101774.31;5034164;28;20046;-68
2022/04/26 14:22:35;;;;;;;5.68;3.35;;;;;;;17.62;37.06;101767.81;5034177;28;20877;-69
2022/04/26 14:25:08;;;;;;;19.90;3.97;;;;;;;17.66;36.73;101769.41;5033948;28;20045;-69
2022/04/26 14:27:39;;;;;;;10.73;3.83;;;;;;;18.27;35.54;101775.53;5033729;28;20121;-69
2022/04/26 14:30:11;;;;;;;5.28;3.30;;;;;;;18.46;34.70;101765.69;5033372;28;20042;-67
2022/04/26 14:32:58;;;;;;;7.40;3.38;;;;;;;18.19;35.11;101767.03;5033997;28;20412;-69
2022/04/26 14:35:28;;;;;;;5.32;3.45;;;;;;;18.36;35.47;101771.56;5033149;28;20796;-69
2022/04/26 14:37:56;;;;;;;6.45;3.55;;;;;;;18.70;35.45;101767.19;5034250;28;20045;-69
2022/04/26 14:40:23;;;;;;;6.22;3.10;;;;;;;18.90;34.26;101766.22;5033426;28;20042;-68
2022/04/26 14:42:50;;;;;;;5.53;3.38;;;;;;;18.69;35.13;101776.16;5033707;28;20042;-69
2022/04/26 14:45:17;;;;;;;5.50;3.15;;;;;;;18.53;34.98;101774.25;5033792;28;20213;-68
2022/04/26 14:47:45;;;;;;;12.35;3.47;;;;;;;18.38;35.10;101772.31;5033595;28;20578;-69
2022/04/26 14:50:13;;;;;;;5.68;3.05;;;;;;;18.26;35.44;101781.78;5032985;28;20072;-68
2022/04/26 14:52:41;;;;;;;13.00;3.72;;;;;;;18.28;35.06;101778.09;5033330;28;20048;-68
2022/04/26 14:55:10;;;;;;;6.60;2.83;;;;;;;18.07;35.61;101777.34;5033186;28;20048;-68
2022/04/26 14:57:37;;;;;;;8.60;3.08;;;;;;;18.10;35.58;101779.00;5033094;28;20053;-69
2022/04/26 15:00:07;;;;;;;6.15;2.65;;;;;;;17.92;35.88;101778.88;5032955;28;20044;-69
2022/04/26 15:02:41;;;;;;;5.40;2.72;;;;;;;17.67;35.19;101785.34;5036526;28;20531;-68
2022/04/26 15:05:09;;;;;;;9.60;3.13;;;;;;;17.41;35.79;101785.66;5040417;28;20125;-69
2022/04/26 15:10:25;;;;;;;4.20;2.75;;;;;;;17.17;36.00;101781.31;5039030;28;20484;-67
2022/04/26 15:18:24;;;;;;;7.85;3.03;;;;;;;16.76;37.29;101779.44;5033704;28;20048;-68
2022/04/26 15:20:52;;;;;;;6.68;3.15;;;;;;;16.69;37.63;101787.72;5033139;28;20057;-68
2022/04/26 15:23:21;;;;;;;13.70;3.58;;;;;;;16.56;37.91;101779.41;5033183;28;20165;-69
2022/04/26 15:25:52;;;;;;;6.07;2.78;;;;;;;16.55;37.74;101777.66;5032983;28;20117;-68
2022/04/26 15:28:20;;;;;;;6.30;2.78;;;;;;;16.52;37.71;101783.97;5032576;28;20125;-68
2022/04/26 15:30:49;;;;;;;4.20;2.60;;;;;;;16.35;38.05;101779.31;5033085;28;20052;-69
2022/04/26 15:33:20;;;;;;;3.63;2.70;;;;;;;16.18;38.34;101779.13;5032232;28;20056;-70
2022/04/26 15:35:47;;;;;;;4.35;2.75;;;;;;;16.09;38.22;101777.69;5032605;28;20045;-68
2022/04/26 15:38:14;;;;;;;10.55;2.60;;;;;;;15.95;39.01;101780.88;5032470;28;20038;-69
2022/04/26 15:40:46;;;;;;;5.40;2.90;;;;;;;15.90;38.67;101775.75;5032884;28;20045;-68
2022/04/26 15:43:15;;;;;;;7.32;2.95;;;;;;;15.87;38.97;101789.16;5031949;28;20152;-68
2022/04/26 15:45:43;;;;;;;11.98;3.80;;;;;;;15.84;38.89;101787.47;5032660;28;20049;-68
2022/04/26 15:48:10;;;;;;;4.38;2.70;;;;;;;15.67;38.78;101790.72;5032921;28;20044;-69
2022/04/26 15:50:41;;;;;;;3.28;2.22;;;;;;;15.71;39.75;101798.59;5032637;28;20166;-70